Montevideo, Minnesota
Current Conditions -  °F | °C
As of 9:54 PM on Wednesday 22 Oct 2014 (Local Time) from KMVE Reporting Station
Overcast Overcast  
Wind Chill: 59°   Ceiling: 1700
Heat Index: 59°   Visibility: 7mi
Dew Point: 57°   Wind: 7mph
Humidity: 94%   Direction: 260°W
Pressure: 29.98"   Gusts: NA
Location:  44.95°N, 95.72°W
Report Text: KMVE 230254Z AUTO 26006KT 7SM BKN017 OVC030 15/14 A2998 RMK AO2 P0004
Loading
Personal Weather Stations






























Interactive Weather Map
Tropical Storm Tracking
New forecast layout! Learn more

10-Day Weather Forecast

Advertisements
Track Severe Weather on mobile